Time;durP1;ratioP1;P1;durP2;ratioP2;P2;SDS_P1;SDS_P2;PMS_P1;PMS_P2;Temp;Humidity;BMP_temperature;BMP_pressure;BME280_temperature;BME280_humidity;BME280_pressure;Samples;Min_cycle;Max_cycle;Signal;HPM_P1;HPM_P2
2023/12/01 00:00:10;;;;;;;12.07;9.03;;;2.90;99.90;;;;;;5080358;28;20187;-66
2023/12/01 00:02:36;;;;;;;13.90;9.23;;;2.90;99.90;;;;;;5070477;28;20176;-66
2023/12/01 00:05:07;;;;;;;13.53;9.10;;;2.90;99.90;;;;;;5085915;28;20182;-63
2023/12/01 00:07:32;;;;;;;12.13;8.37;;;2.90;99.90;;;;;;5087126;28;20192;-65
2023/12/01 00:09:58;;;;;;;12.10;8.87;;;2.80;99.90;;;;;;5080776;28;20183;-65
2023/12/01 00:12:23;;;;;;;17.50;9.80;;;2.80;99.90;;;;;;5080205;28;20196;-65
2023/12/01 00:14:49;;;;;;;12.70;8.90;;;2.80;99.90;;;;;;5098527;28;20267;-64
2023/12/01 00:17:17;;;;;;;15.43;9.53;;;2.70;99.90;;;;;;5088150;28;20204;-65
2023/12/01 00:19:43;;;;;;;14.87;10.03;;;2.70;99.90;;;;;;5085026;28;20231;-66
2023/12/01 00:22:11;;;;;;;14.83;9.57;;;2.70;99.90;;;;;;5079776;28;20222;-66
2023/12/01 00:24:37;;;;;;;15.53;10.07;;;2.60;99.90;;;;;;5078959;28;20207;-65
2023/12/01 00:27:05;;;;;;;19.33;10.33;;;2.60;99.90;;;;;;5084163;28;20239;-66
2023/12/01 00:29:33;;;;;;;18.27;9.33;;;2.60;99.90;;;;;;5079563;28;20249;-65
2023/12/01 00:31:59;;;;;;;15.63;9.97;;;2.60;99.90;;;;;;5079012;28;20180;-65
2023/12/01 00:34:30;;;;;;;14.50;9.67;;;2.70;99.90;;;;;;5080316;28;20168;-68
2023/12/01 00:37:32;;;;;;;13.50;9.13;;;2.50;99.90;;;;;;5079348;28;20234;-65
2023/12/01 00:39:58;;;;;;;12.73;8.63;;;2.50;99.90;;;;;;5080017;28;20195;-64
2023/12/01 00:42:25;;;;;;;13.53;9.00;;;2.50;99.90;;;;;;5080464;28;20171;-64
2023/12/01 00:44:53;;;;;;;14.40;9.67;;;2.40;99.90;;;;;;5077433;28;20315;-64
2023/12/01 00:47:19;;;;;;;14.10;9.63;;;2.40;99.90;;;;;;5088839;28;20215;-64
2023/12/01 00:49:44;;;;;;;12.83;8.87;;;2.40;99.90;;;;;;5069015;28;20188;-65
2023/12/01 00:52:10;;;;;;;13.93;9.77;;;2.30;99.90;;;;;;5082077;28;20202;-65
2023/12/01 00:54:36;;;;;;;14.07;9.53;;;2.30;99.90;;;;;;5079796;28;20259;-66
2023/12/01 00:57:02;;;;;;;14.37;9.47;;;2.30;99.90;;;;;;5080039;28;20172;-65
2023/12/01 00:59:27;;;;;;;11.73;8.57;;;2.20;99.90;;;;;;5078723;28;20187;-64
2023/12/01 01:01:56;;;;;;;13.40;9.00;;;2.20;99.90;;;;;;5076620;28;20224;-66
2023/12/01 01:04:22;;;;;;;13.10;9.00;;;2.10;99.90;;;;;;5077034;28;20175;-65
2023/12/01 01:06:50;;;;;;;13.30;9.33;;;2.10;99.90;;;;;;5079192;28;20199;-65
2023/12/01 01:09:16;;;;;;;13.20;9.50;;;2.10;99.90;;;;;;5077998;28;20211;-65
2023/12/01 01:11:46;;;;;;;14.00;9.37;;;2.00;99.90;;;;;;5082927;28;20204;-66
2023/12/01 01:14:14;;;;;;;12.63;8.37;;;2.20;99.90;;;;;;5079222;28;20175;-65
2023/12/01 01:16:40;;;;;;;11.93;8.30;;;2.00;99.90;;;;;;5076824;28;20200;-66
2023/12/01 01:19:06;;;;;;;11.70;8.13;;;2.00;99.90;;;;;;5078478;28;20196;-66
2023/12/01 01:21:37;;;;;;;10.73;8.10;;;2.00;99.90;;;;;;5079112;28;20241;-66
2023/12/01 01:24:02;;;;;;;10.80;8.10;;;1.90;99.90;;;;;;5076597;28;20181;-65
2023/12/01 01:26:28;;;;;;;11.73;8.33;;;1.90;99.90;;;;;;5079276;28;20207;-64
2023/12/01 01:28:54;;;;;;;12.00;8.70;;;1.90;99.90;;;;;;5078833;28;20207;-65
2023/12/01 01:31:19;;;;;;;11.50;8.50;;;1.90;99.90;;;;;;5080869;28;20188;-66
2023/12/01 01:33:47;;;;;;;10.40;7.80;;;1.90;99.90;;;;;;5075434;28;20207;-64
2023/12/01 01:36:18;;;;;;;11.77;8.27;;;1.90;99.90;;;;;;5078267;28;20180;-65
2023/12/01 01:38:43;;;;;;;10.30;8.17;;;1.90;99.90;;;;;;5079377;28;20209;-66
2023/12/01 01:41:11;;;;;;;13.83;8.57;;;1.90;99.90;;;;;;5078270;28;20255;-65
2023/12/01 01:43:39;;;;;;;12.40;8.33;;;1.90;99.90;;;;;;5077391;28;20176;-65
2023/12/01 01:46:07;;;;;;;11.40;8.17;;;1.80;99.90;;;;;;5079472;28;20203;-65
2023/12/01 01:48:33;;;;;;;12.37;8.60;;;1.80;99.90;;;;;;5077616;28;20226;-64
2023/12/01 01:51:00;;;;;;;11.37;8.13;;;1.80;99.90;;;;;;5080007;28;20168;-65
2023/12/01 01:53:30;;;;;;;11.30;7.83;;;1.80;99.90;;;;;;5077240;28;20200;-65
2023/12/01 01:55:57;;;;;;;10.70;7.97;;;1.80;99.90;;;;;;5094153;28;20176;-65
2023/12/01 01:58:26;;;;;;;11.70;8.03;;;1.80;99.90;;;;;;5079408;28;20182;-65
2023/12/01 02:00:52;;;;;;;10.23;7.90;;;1.80;99.90;;;;;;5079013;28;20176;-65
2023/12/01 02:03:20;;;;;;;11.20;8.10;;;1.80;99.90;;;;;;5072011;28;20222;-65
2023/12/01 02:05:49;;;;;;;13.23;8.57;;;1.80;99.90;;;;;;5078002;28;20240;-65
2023/12/01 02:08:28;;;;;;;12.60;8.37;;;1.70;99.90;;;;;;5078435;28;20284;-64
2023/12/01 02:10:57;;;;;;;11.30;8.23;;;1.80;99.90;;;;;;5094877;28;20176;-64
2023/12/01 02:13:24;;;;;;;12.27;8.57;;;1.80;99.90;;;;;;5079088;28;20179;-64
2023/12/01 02:15:52;;;;;;;11.33;8.30;;;1.70;99.90;;;;;;5078014;28;20180;-65
2023/12/01 02:18:30;;;;;;;10.80;7.73;;;1.70;99.90;;;;;;5071234;28;20211;-64
2023/12/01 02:20:57;;;;;;;11.77;8.07;;;1.80;99.90;;;;;;5074504;28;20287;-65
2023/12/01 02:23:23;;;;;;;12.70;8.57;;;1.70;99.90;;;;;;5079194;28;20230;-66
2023/12/01 02:25:49;;;;;;;12.93;8.40;;;1.70;99.90;;;;;;5072612;28;20180;-65
2023/12/01 02:28:17;;;;;;;10.90;7.67;;;1.80;99.90;;;;;;5095373;28;20307;-65
2023/12/01 02:30:49;;;;;;;11.23;7.80;;;1.80;99.90;;;;;;5077061;28;20203;-64
2023/12/01 02:33:19;;;;;;;12.83;8.40;;;1.70;99.90;;;;;;5077986;28;20177;-64
2023/12/01 02:35:56;;;;;;;12.57;9.07;;;1.70;99.90;;;;;;5078511;28;20168;-64
2023/12/01 02:38:22;;;;;;;12.97;8.47;;;1.70;99.90;;;;;;5061399;28;20187;-65
2023/12/01 02:40:50;;;;;;;11.67;7.83;;;1.70;99.90;;;;;;5091954;28;20176;-65
2023/12/01 02:43:18;;;;;;;11.47;8.00;;;1.70;99.90;;;;;;5078174;28;20229;-64
2023/12/01 02:45:46;;;;;;;10.90;7.30;;;1.70;99.90;;;;;;5064654;28;20207;-64
2023/12/01 02:48:12;;;;;;;11.70;8.20;;;1.70;99.90;;;;;;5071340;28;20196;-64
2023/12/01 02:50:38;;;;;;;11.23;7.63;;;1.70;99.90;;;;;;5083680;28;20236;-65
2023/12/01 02:53:05;;;;;;;11.73;8.00;;;1.60;99.90;;;;;;5072689;28;20175;-65
2023/12/01 02:55:30;;;;;;;11.70;8.00;;;1.60;99.90;;;;;;5078068;28;20192;-65
2023/12/01 02:57:57;;;;;;;11.37;7.83;;;1.60;99.90;;;;;;5091121;28;20191;-64
2023/12/01 03:00:24;;;;;;;13.07;8.93;;;1.60;99.90;;;;;;5081131;28;20245;-65
2023/12/01 03:02:50;;;;;;;12.17;8.70;;;1.60;99.90;;;;;;5077946;28;20712;-64
2023/12/01 03:05:17;;;;;;;12.13;8.70;;;1.70;99.90;;;;;;5077144;28;20179;-64
2023/12/01 03:07:43;;;;;;;11.33;7.87;;;1.60;99.90;;;;;;5078380;28;20215;-65
2023/12/01 03:10:09;;;;;;;11.60;8.07;;;1.60;99.90;;;;;;5077533;28;20212;-65
2023/12/01 03:12:35;;;;;;;10.83;7.77;;;1.60;99.90;;;;;;5093472;28;20213;-65
2023/12/01 03:15:01;;;;;;;11.90;7.33;;;1.60;99.90;;;;;;5078852;28;20161;-65
2023/12/01 03:17:27;;;;;;;11.37;8.23;;;1.60;99.90;;;;;;5076969;28;20172;-65
2023/12/01 03:19:53;;;;;;;9.70;6.90;;;1.60;99.90;;;;;;5079316;28;20212;-65
2023/12/01 03:22:19;;;;;;;10.43;7.43;;;1.60;99.90;;;;;;5077344;28;20176;-65
2023/12/01 03:24:47;;;;;;;10.00;7.23;;;1.70;99.90;;;;;;5073505;28;20180;-66
2023/12/01 03:27:33;;;;;;;10.80;7.53;;;1.70;99.90;;;;;;5074610;28;20292;-65
2023/12/01 03:29:59;;;;;;;10.73;7.07;;;1.80;99.90;;;;;;5072140;28;20172;-65
2023/12/01 03:32:24;;;;;;;10.83;7.40;;;1.70;99.90;;;;;;5070242;28;20264;-65
2023/12/01 03:34:50;;;;;;;10.30;7.03;;;1.80;99.90;;;;;;5097706;28;20203;-65
2023/12/01 03:37:15;;;;;;;10.77;6.90;;;1.90;99.90;;;;;;5071627;28;20227;-66
2023/12/01 03:39:41;;;;;;;10.17;6.73;;;1.80;99.90;;;;;;5080769;28;20180;-66
2023/12/01 03:42:09;;;;;;;11.00;7.37;;;1.90;99.90;;;;;;5082146;28;20167;-66
2023/12/01 03:44:37;;;;;;;10.90;7.23;;;1.90;99.90;;;;;;5080754;28;20247;-66
2023/12/01 03:47:03;;;;;;;11.43;7.30;;;1.90;99.90;;;;;;5076454;28;20259;-66
2023/12/01 03:49:32;;;;;;;11.57;8.03;;;1.90;99.90;;;;;;5083010;28;20172;-65
2023/12/01 03:51:57;;;;;;;9.97;7.20;;;1.90;99.90;;;;;;5081408;28;20259;-66
2023/12/01 03:54:25;;;;;;;11.13;7.50;;;1.90;99.90;;;;;;5080152;28;20264;-66
2023/12/01 03:56:51;;;;;;;10.10;6.83;;;1.90;99.90;;;;;;5080921;28;20192;-66
2023/12/01 03:59:16;;;;;;;9.70;6.13;;;1.90;99.90;;;;;;5091074;28;20286;-66
2023/12/01 04:01:42;;;;;;;10.23;7.20;;;2.00;99.90;;;;;;5082328;28;20260;-66
2023/12/01 04:04:10;;;;;;;12.37;6.70;;;1.90;99.90;;;;;;5072633;28;20188;-65
2023/12/01 04:06:41;;;;;;;10.83;7.00;;;1.90;99.90;;;;;;5080099;28;20195;-65
2023/12/01 04:09:09;;;;;;;10.37;7.10;;;1.90;99.90;;;;;;5068784;28;20210;-65
2023/12/01 04:11:36;;;;;;;9.47;6.60;;;1.90;99.90;;;;;;5078644;28;20176;-66
2023/12/01 04:14:03;;;;;;;10.57;6.67;;;1.90;99.90;;;;;;5085659;28;20439;-67
2023/12/01 04:16:32;;;;;;;10.83;7.10;;;1.90;99.90;;;;;;5081351;28;20164;-66
2023/12/01 04:19:00;;;;;;;9.33;6.30;;;1.90;99.90;;;;;;5079854;28;20176;-66
2023/12/01 04:21:28;;;;;;;10.27;6.83;;;1.90;99.90;;;;;;5079929;28;20203;-65
2023/12/01 04:23:54;;;;;;;10.13;7.10;;;1.90;99.90;;;;;;5081330;28;20180;-66
2023/12/01 04:26:19;;;;;;;10.33;7.03;;;2.00;99.90;;;;;;5081708;28;20244;-65
2023/12/01 04:28:48;;;;;;;10.23;7.27;;;1.90;99.90;;;;;;5094605;28;20195;-65
2023/12/01 04:31:13;;;;;;;10.43;6.87;;;1.90;99.90;;;;;;5078945;28;20172;-65
2023/12/01 04:33:41;;;;;;;12.10;8.23;;;1.90;99.90;;;;;;5092678;28;20222;-65
2023/12/01 04:36:07;;;;;;;13.17;7.80;;;1.90;99.90;;;;;;5083411;28;20211;-65
2023/12/01 04:38:34;;;;;;;10.43;7.87;;;1.90;99.90;;;;;;5080739;28;20176;-65
2023/12/01 04:41:02;;;;;;;10.37;7.60;;;1.90;99.90;;;;;;5080188;28;20267;-65
2023/12/01 04:43:30;;;;;;;9.33;7.47;;;2.00;99.90;;;;;;5093119;28;20233;-65
2023/12/01 04:45:58;;;;;;;11.70;8.37;;;2.00;99.90;;;;;;5074097;28;20200;-66
2023/12/01 04:48:24;;;;;;;11.30;7.73;;;2.00;99.90;;;;;;5079835;28;20207;-65
2023/12/01 04:50:51;;;;;;;9.60;7.27;;;2.10;99.90;;;;;;5078755;28;20229;-65
2023/12/01 04:53:17;;;;;;;12.97;9.37;;;2.00;99.90;;;;;;5078834;28;20211;-66
2023/12/01 04:55:47;;;;;;;11.03;8.07;;;2.20;99.90;;;;;;5084398;28;20203;-66
2023/12/01 04:58:13;;;;;;;11.53;8.07;;;2.20;99.90;;;;;;5064005;28;20208;-65
2023/12/01 05:00:39;;;;;;;10.47;7.20;;;2.20;99.90;;;;;;5079543;28;20178;-65
2023/12/01 05:03:06;;;;;;;11.23;7.90;;;2.20;99.90;;;;;;5078517;28;20196;-66
2023/12/01 05:05:40;;;;;;;11.40;8.27;;;2.20;99.90;;;;;;5079203;28;20202;-66
2023/12/01 05:08:09;;;;;;;11.87;8.30;;;2.20;99.90;;;;;;5076901;28;20202;-66
2023/12/01 05:10:37;;;;;;;11.00;8.07;;;2.20;99.90;;;;;;5069859;28;20227;-66
2023/12/01 05:13:07;;;;;;;10.77;7.87;;;2.30;99.90;;;;;;5080223;28;20176;-65
2023/12/01 05:15:36;;;;;;;12.13;8.40;;;2.40;99.90;;;;;;5086931;28;20200;-65
2023/12/01 05:18:07;;;;;;;12.60;8.23;;;2.30;99.90;;;;;;5079015;28;20262;-64
2023/12/01 05:20:35;;;;;;;12.33;8.40;;;2.30;99.90;;;;;;5073598;28;20180;-65
2023/12/01 05:23:05;;;;;;;11.27;8.20;;;2.40;99.90;;;;;;5068004;28;20213;-65
2023/12/01 05:25:35;;;;;;;11.97;8.47;;;2.40;99.90;;;;;;5074942;28;20175;-65
2023/12/01 05:28:06;;;;;;;14.03;8.90;;;2.40;99.90;;;;;;5079072;28;20286;-66
2023/12/01 05:30:45;;;;;;;13.93;8.83;;;2.40;99.90;;;;;;5075599;28;20186;-66
2023/12/01 05:33:11;;;;;;;11.93;8.27;;;2.40;99.90;;;;;;5079116;28;20178;-65
2023/12/01 05:35:39;;;;;;;11.30;8.10;;;2.40;99.90;;;;;;5079692;28;20172;-65
2023/12/01 05:38:07;;;;;;;10.73;7.70;;;2.40;99.90;;;;;;5077564;28;20200;-65
2023/12/01 05:40:35;;;;;;;10.23;7.57;;;2.40;99.90;;;;;;5072563;28;20222;-66
2023/12/01 05:43:02;;;;;;;9.70;6.93;;;2.40;99.90;;;;;;5079695;28;20176;-66
2023/12/01 05:45:32;;;;;;;16.10;11.13;;;2.40;99.90;;;;;;5079131;28;20207;-66
2023/12/01 05:47:58;;;;;;;12.60;8.50;;;2.40;99.90;;;;;;5075973;28;20197;-64
2023/12/01 05:50:28;;;;;;;12.20;8.47;;;2.40;99.90;;;;;;5072776;28;20176;-65
2023/12/01 05:52:57;;;;;;;10.17;7.43;;;2.40;99.90;;;;;;5079490;28;20199;-65
2023/12/01 05:55:25;;;;;;;10.10;7.07;;;2.40;99.90;;;;;;5073288;28;20188;-64
2023/12/01 05:57:53;;;;;;;10.97;6.90;;;2.50;99.90;;;;;;5065524;28;20169;-65
2023/12/01 06:00:23;;;;;;;9.07;6.00;;;2.50;99.90;;;;;;5078899;28;20176;-65
2023/12/01 06:02:53;;;;;;;9.00;6.67;;;2.50;99.90;;;;;;5075658;28;20238;-64
2023/12/01 06:05:20;;;;;;;8.70;6.23;;;2.50;99.90;;;;;;5078700;28;20212;-64
2023/12/01 06:07:54;;;;;;;8.90;6.37;;;2.60;99.90;;;;;;5075465;28;20219;-64
2023/12/01 06:10:20;;;;;;;7.77;6.07;;;2.50;99.90;;;;;;5059228;28;20167;-64
2023/12/01 06:12:49;;;;;;;7.20;5.53;;;2.40;99.90;;;;;;5073294;28;20251;-64
2023/12/01 06:15:16;;;;;;;9.00;6.97;;;2.40;99.90;;;;;;5095805;28;20172;-64
2023/12/01 06:17:47;;;;;;;8.67;6.87;;;2.40;99.90;;;;;;5082396;28;20224;-64
2023/12/01 06:20:31;;;;;;;7.83;6.53;;;2.40;99.90;;;;;;5078223;28;20185;-64
2023/12/01 06:23:01;;;;;;;8.97;6.23;;;2.40;99.90;;;;;;5083280;28;20226;-64
2023/12/01 06:25:29;;;;;;;8.83;6.90;;;2.40;99.90;;;;;;5078019;28;20172;-63
2023/12/01 06:27:56;;;;;;;9.43;6.73;;;2.40;99.90;;;;;;5067599;28;20203;-64
2023/12/01 06:30:28;;;;;;;9.67;6.60;;;2.40;99.90;;;;;;5078511;28;20192;-65
2023/12/01 06:32:54;;;;;;;8.50;6.00;;;2.30;99.90;;;;;;5079031;28;20168;-65
2023/12/01 06:35:21;;;;;;;8.90;6.27;;;2.30;99.90;;;;;;5078795;28;20256;-65
2023/12/01 06:37:50;;;;;;;8.07;6.30;;;2.40;99.90;;;;;;5080191;28;20184;-65
2023/12/01 06:40:17;;;;;;;8.80;6.60;;;2.40;99.90;;;;;;5081619;28;20172;-65
2023/12/01 06:42:50;;;;;;;8.33;6.57;;;2.40;99.90;;;;;;5094410;28;20204;-65
2023/12/01 06:45:17;;;;;;;9.80;5.97;;;2.40;99.90;;;;;;5077834;28;20178;-66
2023/12/01 06:47:46;;;;;;;7.83;6.03;;;2.40;99.90;;;;;;5078434;28;20214;-66
2023/12/01 06:50:17;;;;;;;7.90;6.03;;;2.40;99.90;;;;;;5078841;28;20182;-66
2023/12/01 06:52:45;;;;;;;7.20;5.73;;;2.50;99.90;;;;;;5090582;28;20514;-65
2023/12/01 06:55:11;;;;;;;8.63;6.33;;;2.40;99.90;;;;;;5077629;28;20255;-66
2023/12/01 06:57:46;;;;;;;8.97;6.37;;;2.40;99.90;;;;;;5077431;28;20200;-66
2023/12/01 07:03:04;;;;;;;8.40;6.30;;;2.40;99.90;;;;;;5095145;28;20241;-65
2023/12/01 07:05:32;;;;;;;8.03;6.23;;;2.40;99.90;;;;;;5078154;28;20187;-66
2023/12/01 07:07:59;;;;;;;10.23;7.17;;;2.50;99.90;;;;;;5077338;28;20196;-66
2023/12/01 07:10:26;;;;;;;9.30;7.03;;;2.40;99.90;;;;;;5077694;28;20186;-65
2023/12/01 07:12:56;;;;;;;9.83;6.60;;;2.40;99.90;;;;;;5088130;28;20172;-65
2023/12/01 07:15:24;;;;;;;10.23;6.80;;;2.40;99.90;;;;;;5077145;28;20191;-64
2023/12/01 07:17:54;;;;;;;9.63;6.77;;;2.40;99.90;;;;;;5077954;28;20184;-65
2023/12/01 07:20:23;;;;;;;8.33;6.13;;;2.30;99.90;;;;;;5076553;28;20176;-65
2023/12/01 07:22:51;;;;;;;8.77;6.43;;;2.40;99.90;;;;;;5077934;28;20211;-64
2023/12/01 07:25:21;;;;;;;7.97;5.87;;;2.40;99.90;;;;;;5069095;28;20173;-64
2023/12/01 07:27:56;;;;;;;10.33;6.80;;;2.40;99.90;;;;;;5075721;28;20223;-64
2023/12/01 07:30:23;;;;;;;9.20;6.67;;;2.40;99.90;;;;;;5077497;28;20179;-65
2023/12/01 07:32:49;;;;;;;9.30;6.33;;;2.40;99.90;;;;;;5077920;28;20182;-64
2023/12/01 07:35:16;;;;;;;7.77;5.83;;;2.40;99.90;;;;;;5078126;28;20211;-65
2023/12/01 07:37:51;;;;;;;7.47;5.63;;;2.40;99.90;;;;;;5077030;28;20244;-65
2023/12/01 07:40:20;;;;;;;7.93;5.90;;;2.40;99.90;;;;;;5077547;28;20175;-65
2023/12/01 07:42:48;;;;;;;7.57;5.47;;;2.40;99.90;;;;;;5077362;28;20187;-65
2023/12/01 07:45:17;;;;;;;8.00;5.67;;;2.40;99.90;;;;;;5076875;28;20226;-64
2023/12/01 07:47:57;;;;;;;8.40;5.87;;;2.40;99.90;;;;;;5077116;28;20214;-65
2023/12/01 07:50:25;;;;;;;7.43;5.30;;;2.40;99.90;;;;;;5076841;28;20172;-64
2023/12/01 07:52:51;;;;;;;8.33;5.80;;;2.40;99.90;;;;;;5076720;28;20371;-64
2023/12/01 07:55:19;;;;;;;8.43;5.87;;;2.40;99.90;;;;;;5077764;28;20290;-65
2023/12/01 07:57:46;;;;;;;7.63;5.63;;;2.40;99.90;;;;;;5076815;28;20184;-64
2023/12/01 08:00:15;;;;;;;7.83;5.60;;;2.40;99.90;;;;;;5076573;28;20184;-65
2023/12/01 08:02:42;;;;;;;8.17;5.73;;;2.40;99.90;;;;;;5076898;28;20180;-64
2023/12/01 08:05:13;;;;;;;8.70;6.13;;;2.40;99.90;;;;;;5077024;28;20279;-64
2023/12/01 08:07:45;;;;;;;8.30;5.90;;;2.40;99.90;;;;;;5077468;28;20265;-65
2023/12/01 08:10:19;;;;;;;8.03;5.77;;;2.40;99.90;;;;;;5077641;28;20170;-65
2023/12/01 08:12:46;;;;;;;7.93;5.70;;;2.40;99.90;;;;;;5077952;28;20211;-66
2023/12/01 08:15:12;;;;;;;9.33;6.00;;;2.40;99.90;;;;;;5086795;28;20216;-66
2023/12/01 08:17:43;;;;;;;8.13;5.63;;;2.40;99.90;;;;;;5095882;28;20175;-66
2023/12/01 08:20:11;;;;;;;6.70;5.07;;;2.50;99.90;;;;;;5081992;28;20237;-66
2023/12/01 08:22:37;;;;;;;6.93;4.97;;;2.40;99.90;;;;;;5080840;28;20180;-66
2023/12/01 08:25:04;;;;;;;7.30;5.17;;;2.40;99.90;;;;;;5081054;28;20293;-66
2023/12/01 08:27:33;;;;;;;6.80;4.97;;;2.40;99.90;;;;;;5080715;28;20196;-65
2023/12/01 08:30:02;;;;;;;5.57;4.30;;;2.40;99.90;;;;;;5081320;28;20172;-65
2023/12/01 08:32:28;;;;;;;6.57;4.83;;;2.40;99.90;;;;;;5085982;28;20253;-65
2023/12/01 08:34:54;;;;;;;5.73;4.40;;;2.40;99.90;;;;;;5078456;28;20196;-64
2023/12/01 08:37:20;;;;;;;6.80;4.60;;;2.40;99.90;;;;;;5082693;28;20205;-65
2023/12/01 08:39:46;;;;;;;6.83;5.00;;;2.40;99.90;;;;;;5097679;28;20175;-65
2023/12/01 08:42:14;;;;;;;6.20;4.73;;;2.40;99.90;;;;;;5080615;28;20195;-64
2023/12/01 08:44:42;;;;;;;6.23;4.57;;;2.40;99.90;;;;;;5080246;28;20180;-64
2023/12/01 08:47:12;;;;;;;5.90;4.40;;;2.40;99.90;;;;;;5080699;28;20203;-64
2023/12/01 08:49:42;;;;;;;5.93;4.73;;;2.50;99.90;;;;;;5097959;28;20191;-64
2023/12/01 08:52:11;;;;;;;6.30;4.53;;;2.50;99.90;;;;;;5117725;28;20167;-64
2023/12/01 08:54:36;;;;;;;7.77;4.47;;;2.50;99.90;;;;;;5106199;28;20172;-64
2023/12/01 08:57:04;;;;;;;6.50;4.60;;;2.50;99.90;;;;;;5081042;28;20168;-64
2023/12/01 08:59:29;;;;;;;5.90;4.30;;;2.50;99.90;;;;;;5080432;28;20172;-65
2023/12/01 09:01:55;;;;;;;6.30;4.80;;;2.50;99.90;;;;;;5080452;28;20183;-64
2023/12/01 09:04:21;;;;;;;6.57;4.67;;;2.60;99.90;;;;;;5079938;28;20203;-66
2023/12/01 09:06:47;;;;;;;6.00;4.50;;;2.60;99.90;;;;;;5080360;28;20176;-64
2023/12/01 09:09:12;;;;;;;6.40;4.40;;;2.60;99.90;;;;;;5080366;28;20208;-64
2023/12/01 09:11:38;;;;;;;5.80;4.57;;;2.60;99.90;;;;;;5079512;28;20180;-65
2023/12/01 09:14:04;;;;;;;5.40;4.77;;;2.60;99.90;;;;;;5080558;28;20237;-65
2023/12/01 09:16:34;;;;;;;6.07;4.50;;;2.70;99.90;;;;;;5080081;28;20203;-65
2023/12/01 09:19:01;;;;;;;6.30;4.27;;;2.60;99.90;;;;;;5076231;28;20206;-65
2023/12/01 09:21:30;;;;;;;6.27;4.67;;;2.70;99.90;;;;;;5078769;28;20263;-65
2023/12/01 09:23:56;;;;;;;5.97;4.37;;;2.70;99.90;;;;;;5079207;28;20200;-65
2023/12/01 09:26:21;;;;;;;7.33;4.70;;;2.70;99.90;;;;;;5079753;28;20184;-64
2023/12/01 09:28:49;;;;;;;5.70;4.40;;;2.80;99.90;;;;;;5079246;28;20272;-65
2023/12/01 09:31:17;;;;;;;6.50;4.67;;;2.80;99.90;;;;;;5078722;28;20183;-65
2023/12/01 09:33:45;;;;;;;5.50;4.53;;;2.80;99.90;;;;;;5068025;28;20183;-64
2023/12/01 09:36:17;;;;;;;6.00;4.23;;;2.90;99.90;;;;;;5106188;22;20232;-64
2023/12/01 09:38:48;;;;;;;5.90;4.60;;;2.90;99.90;;;;;;5022649;28;20192;-65
2023/12/01 09:41:14;;;;;;;5.37;4.10;;;2.90;99.90;;;;;;5039117;28;20209;-65
2023/12/01 09:43:43;;;;;;;5.80;4.20;;;2.90;99.90;;;;;;5039741;28;20232;-65
2023/12/01 09:46:10;;;;;;;5.40;4.30;;;3.00;99.90;;;;;;5037539;28;20186;-65
2023/12/01 09:48:40;;;;;;;6.33;4.33;;;2.90;99.90;;;;;;5034949;28;20220;-65
2023/12/01 09:51:08;;;;;;;5.50;4.10;;;2.90;99.90;;;;;;5020883;28;20178;-65
2023/12/01 09:53:34;;;;;;;6.13;4.50;;;3.00;99.90;;;;;;5035168;28;20174;-65
2023/12/01 09:56:03;;;;;;;4.90;3.90;;;3.00;99.90;;;;;;5038409;28;20212;-65
2023/12/01 09:58:30;;;;;;;5.73;4.10;;;3.00;99.90;;;;;;5036723;28;20282;-65
2023/12/01 10:00:56;;;;;;;5.43;4.10;;;3.00;99.90;;;;;;5038725;28;20185;-65
2023/12/01 10:03:24;;;;;;;5.97;4.30;;;3.00;99.90;;;;;;5039016;28;20181;-67
2023/12/01 10:05:53;;;;;;;6.07;4.33;;;3.00;99.90;;;;;;5034921;28;20239;-64
2023/12/01 10:08:19;;;;;;;5.33;4.27;;;3.00;99.90;;;;;;5068494;28;20209;-65
2023/12/01 10:10:45;;;;;;;5.67;4.20;;;3.00;99.90;;;;;;5031922;28;20185;-64
2023/12/01 10:13:13;;;;;;;5.63;4.20;;;3.00;99.90;;;;;;5041071;28;20220;-66
2023/12/01 10:15:39;;;;;;;5.07;3.97;;;3.00;99.90;;;;;;5047550;28;20177;-66
2023/12/01 10:18:23;;;;;;;5.43;3.87;;;3.00;99.90;;;;;;5036807;28;20177;-65
2023/12/01 10:20:57;;;;;;;4.80;3.93;;;3.10;99.90;;;;;;5047366;28;20271;-66
2023/12/01 10:23:23;;;;;;;4.80;3.77;;;3.10;99.90;;;;;;5030489;28;20243;-66
2023/12/01 10:25:50;;;;;;;5.00;3.70;;;3.10;99.90;;;;;;5038001;28;20177;-66
2023/12/01 10:28:17;;;;;;;6.37;3.77;;;3.10;99.90;;;;;;5038322;28;20296;-66
2023/12/01 10:31:00;;;;;;;3.80;3.40;;;3.20;99.90;;;;;;5034834;28;20235;-67
2023/12/01 10:33:28;;;;;;;4.67;3.40;;;3.20;99.90;;;;;;5037739;28;20197;-67
2023/12/01 10:36:12;;;;;;;4.50;3.40;;;3.20;99.90;;;;;;5041266;28;20170;-64
2023/12/01 10:38:38;;;;;;;4.10;3.27;;;3.20;99.90;;;;;;5018898;28;20174;-65
2023/12/01 10:41:08;;;;;;;4.27;3.10;;;3.20;99.90;;;;;;5034211;28;20267;-65
2023/12/01 10:43:34;;;;;;;3.70;3.20;;;3.20;99.90;;;;;;5030802;28;20251;-65
2023/12/01 10:46:02;;;;;;;3.77;2.77;;;3.30;99.90;;;;;;5018686;28;20182;-64
2023/12/01 10:48:32;;;;;;;4.50;3.20;;;3.30;99.90;;;;;;5032119;28;20208;-65
2023/12/01 10:51:07;;;;;;;4.07;3.07;;;3.30;99.90;;;;;;5037414;28;20177;-65
2023/12/01 10:53:36;;;;;;;4.33;3.40;;;3.30;99.90;;;;;;5047188;28;20243;-65
2023/12/01 10:56:06;;;;;;;3.83;2.83;;;3.50;99.90;;;;;;5037807;28;20185;-65
2023/12/01 10:58:38;;;;;;;3.40;2.57;;;3.30;99.90;;;;;;5033751;28;20187;-65
2023/12/01 11:01:09;;;;;;;3.37;2.70;;;3.30;99.90;;;;;;5040115;28;20197;-65
2023/12/01 11:03:39;;;;;;;3.37;2.70;;;3.20;99.90;;;;;;5036173;28;20294;-67
2023/12/01 11:06:10;;;;;;;3.00;2.63;;;3.30;99.90;;;;;;5034301;28;20205;-66
2023/12/01 11:08:54;;;;;;;3.57;2.37;;;3.30;99.90;;;;;;5018213;28;20201;-66
2023/12/01 11:11:36;;;;;;;2.77;2.50;;;3.30;99.90;;;;;;5058579;28;20165;-66
2023/12/01 11:14:17;;;;;;;3.37;2.57;;;3.30;99.90;;;;;;5052855;28;20188;-66
2023/12/01 11:16:43;;;;;;;3.20;2.90;;;3.40;99.90;;;;;;5036249;28;20221;-66
2023/12/01 11:19:12;;;;;;;2.60;2.40;;;3.40;99.90;;;;;;5033398;28;20292;-66
2023/12/01 11:21:49;;;;;;;3.43;2.83;;;3.40;99.90;;;;;;5035840;28;20180;-66
2023/12/01 11:24:31;;;;;;;3.27;2.30;;;3.40;99.90;;;;;;5035595;28;20206;-66
2023/12/01 11:27:10;;;;;;;3.10;2.43;;;3.40;99.90;;;;;;5041570;28;20212;-66
2023/12/01 11:29:38;;;;;;;3.90;2.83;;;3.40;99.90;;;;;;5043921;28;20197;-66
2023/12/01 11:32:04;;;;;;;3.30;2.80;;;3.40;99.90;;;;;;5036230;28;20278;-68
2023/12/01 11:34:32;;;;;;;3.30;2.80;;;3.40;99.90;;;;;;5030860;28;20235;-66
2023/12/01 11:37:00;;;;;;;4.40;3.23;;;3.40;99.90;;;;;;5037174;28;20245;-66
2023/12/01 11:39:27;;;;;;;3.90;2.93;;;3.40;99.90;;;;;;5036838;28;20196;-66
2023/12/01 11:42:00;;;;;;;3.80;3.00;;;3.40;99.90;;;;;;5029921;28;20189;-66
2023/12/01 11:44:29;;;;;;;3.60;2.80;;;3.40;99.90;;;;;;5037440;28;20482;-66
2023/12/01 11:46:56;;;;;;;3.67;2.93;;;3.40;99.90;;;;;;5037017;28;20204;-66
2023/12/01 11:49:43;;;;;;;3.60;2.90;;;3.40;99.90;;;;;;5043261;28;20201;-66
2023/12/01 11:52:14;;;;;;;3.73;3.07;;;3.40;99.90;;;;;;5037373;28;20162;-66
2023/12/01 11:54:41;;;;;;;3.83;3.07;;;3.40;99.90;;;;;;5026340;28;20193;-66
2023/12/01 11:57:08;;;;;;;5.30;3.53;;;3.40;99.90;;;;;;5021688;28;20180;-67
2023/12/01 11:59:35;;;;;;;5.03;3.90;;;3.40;99.90;;;;;;5029555;28;20174;-66
2023/12/01 12:02:02;;;;;;;4.77;3.57;;;3.40;99.90;;;;;;5054118;28;20197;-66
2023/12/01 12:04:28;;;;;;;4.93;3.67;;;3.50;99.90;;;;;;5032694;28;20177;-66
2023/12/01 12:06:55;;;;;;;5.47;4.07;;;3.40;99.90;;;;;;5040943;28;20197;-66
2023/12/01 12:09:25;;;;;;;4.83;4.03;;;3.30;99.90;;;;;;5040946;28;20231;-67
2023/12/01 12:11:56;;;;;;;4.47;3.33;;;3.30;99.90;;;;;;5040985;28;20180;-66
2023/12/01 12:14:23;;;;;;;5.10;3.80;;;3.30;99.90;;;;;;5040607;28;20220;-67
2023/12/01 12:16:52;;;;;;;6.03;3.63;;;3.60;99.90;;;;;;5039596;28;20264;-65
2023/12/01 12:19:18;;;;;;;4.87;3.80;;;3.30;99.90;;;;;;5045862;28;20178;-66
2023/12/01 12:21:47;;;;;;;4.73;3.53;;;3.30;99.90;;;;;;5035309;28;20198;-65
2023/12/01 12:24:15;;;;;;;7.37;3.90;;;3.30;99.90;;;;;;5067148;28;20192;-65
2023/12/01 12:26:42;;;;;;;5.00;3.40;;;3.30;99.90;;;;;;5040692;28;20272;-65
2023/12/01 12:29:08;;;;;;;4.63;3.50;;;3.30;99.90;;;;;;5040055;28;20204;-65
2023/12/01 12:31:35;;;;;;;4.57;3.33;;;3.30;99.90;;;;;;5043621;28;20178;-65
2023/12/01 12:34:03;;;;;;;4.70;3.70;;;3.40;99.90;;;;;;5040384;28;20195;-66
2023/12/01 12:36:35;;;;;;;4.00;3.27;;;3.40;99.90;;;;;;5023478;28;20280;-66
2023/12/01 12:39:04;;;;;;;4.33;3.53;;;3.40;99.90;;;;;;5020887;28;20196;-66
2023/12/01 12:41:31;;;;;;;4.13;3.43;;;3.40;99.90;;;;;;5026611;28;20219;-67
2023/12/01 12:44:04;;;;;;;5.17;3.73;;;3.40;99.90;;;;;;5040213;28;20177;-66
2023/12/01 12:46:31;;;;;;;5.73;3.73;;;3.50;99.90;;;;;;5040429;28;20177;-68
2023/12/01 12:49:08;;;;;;;4.63;3.50;;;3.50;99.90;;;;;;5039997;28;20213;-66
2023/12/01 12:51:40;;;;;;;5.53;3.77;;;3.50;99.90;;;;;;5040924;28;20239;-66
2023/12/01 12:54:09;;;;;;;3.93;3.40;;;3.50;99.90;;;;;;5041579;28;20181;-66
2023/12/01 12:56:35;;;;;;;4.47;3.50;;;3.50;99.90;;;;;;5067390;28;20182;-66
2023/12/01 12:59:02;;;;;;;3.57;3.03;;;3.50;99.90;;;;;;5036808;28;20182;-66
2023/12/01 13:01:27;;;;;;;5.93;3.90;;;3.50;99.90;;;;;;5039833;28;20173;-66